• Join FlightAware (Why Join?)
  • Login
  • US Flag 
09:53AM EDT


 

Airport Tracker/Info


-or-


 

Live Flight TrackerFlight Track Log ✈ N272AY ✈ 18-Apr-2013 ✈ LIRF / FCO - KPHL

Flight Track Log - Related Links

Times and Time Zones

All times are in EDT time to prevent confusion due to time zone crossing. See the N272AY flight status page for this flight to view local times or setup timezone preferences in your user account.

Time Position Orientation Groundspeed Altitude Reporting Facility
EDT Latitude Longitude Course Direction KTS MPH feet Rate Location/Type
06:00AM 41.7520 12.2430 204° Southwest 163 188 2,300  Level FlightAware
06:00AM 41.7470 12.2260 248° West 165 190 2,700 1,560 Climbing FlightAware
06:03AM 41.8943 11.8919 301° West  Level Estimated
06:04AM 41.9852 11.7990 323° Northwest  Level FlightAware Approximate
06:05AM 42.0429 11.6664 299° West  Level Estimated
06:05AM 41.8530 11.7140 299° West 360 414 10,300  Level FlightAware
06:06AM 41.9110 11.5620 297° West 375 432 12,600 1,740 Climbing FlightAware
06:07AM 41.9430 11.4790 297° West 386 444 13,700 1,620 Climbing FlightAware
06:07AM 41.9800 11.3810 297° West 398 458 14,900 1,620 Climbing FlightAware
06:08AM 42.0170 11.2810 297° West 403 464 16,200 1,620 Climbing FlightAware
06:09AM 42.0510 11.1900 297° West 407 468 17,200 1,500 Climbing FlightAware
06:10AM 42.0890 11.0870 296° West 413 475 18,400 1,380 Climbing FlightAware
06:10AM 42.1240 10.9940 297° West 421 484 19,200 1,320 Climbing FlightAware
06:11AM 42.1600 10.8970 297° West 428 493 20,200 1,440 Climbing FlightAware
06:12AM 42.2000 10.7880 296° West 432 497 21,300 1,440 Climbing FlightAware
06:12AM 42.2360 10.6910 297° West 430 495 22,300 1,380 Climbing FlightAware
06:13AM 42.2720 10.5960 297° West 429 494 23,200 1,080 Climbing FlightAware
06:14AM 42.3330 10.5110 314° West 429 494 23,900 900 Climbing FlightAware
06:14AM 42.3930 10.4380 318° Northwest 436 502 24,500 780 Climbing FlightAware
06:15AM 42.4400 10.3810 318° Northwest 436 502 24,900 840 Climbing FlightAware
06:16AM 42.5080 10.2980 318° Northwest 446 513 25,600 1,020 Climbing FlightAware
06:16AM 42.5700 10.2230 318° Northwest 447 514 26,300 900 Climbing FlightAware
06:17AM 42.6330 10.1460 318° Northwest 453 521 26,800 660 Climbing FlightAware
06:18AM 42.6960 10.0690 318° Northwest 460 529 27,200 600 Climbing FlightAware
06:18AM 42.7640 9.9850 318° Northwest 463 533 27,700 720 Climbing FlightAware
06:19AM 42.8270 9.9080 318° Northwest 463 533 28,300 660 Climbing FlightAware
06:20AM 42.8990 9.8180 318° Northwest 468 539 28,700 600 Climbing FlightAware
06:21AM 42.9570 9.7250 310° West 472 543 29,200 840 Climbing FlightAware
06:21AM 43.0020 9.6090 298° West 472 543 29,900 960 Climbing FlightAware
06:22AM 43.0400 9.4990 295° West 469 540 30,600 780 Climbing FlightAware
06:23AM 43.0750 9.3950 295° West 468 539 31,000 660 Climbing FlightAware
06:23AM 43.1140 9.2800 295° West 467 537 31,600 840 Climbing FlightAware
06:24AM 43.1530 9.1640 295° West 464 534 32,200 780 Climbing FlightAware
06:25AM 43.1880 9.0600 295° West 460 529 32,700 660 Climbing FlightAware
06:25AM 43.2280 8.9380 294° West 459 528 33,200 600 Climbing FlightAware
06:26AM 43.2560 8.8280 289° West 460 529 33,600 540 Climbing FlightAware
06:27AM 43.2850 8.7160 290° West 460 529 34,000 240 Climbing FlightAware
06:28AM 43.3160 8.5980 290° West 463 533 34,000  Level FlightAware
06:28AM 43.3430 8.4900 289° West 460 529 34,000  Level FlightAware
06:29AM 43.3760 8.3610 289° West 461 531 34,000  Level FlightAware
06:30AM 43.4040 8.2510 289° West 462 532 34,000  Level FlightAware
06:30AM 43.4360 8.1260 289° West 462 532 34,000  Level FlightAware
06:31AM 43.4640 8.0140 289° West 462 532 34,000  Level FlightAware
06:32AM 43.4910 7.9060 289° West 458 527 34,000  Level FlightAware
06:32AM 43.5230 7.7770 289° West 458 527 34,000  Level FlightAware
06:33AM 43.5670 7.6800 302° West 456 525 34,000  Level FlightAware
06:34AM 43.6270 7.5980 315° West 458 527 34,000  Level FlightAware
06:35AM 43.6940 7.5070 316° Northwest 460 529 34,000  Level FlightAware
06:35AM 43.7550 7.4250 316° Northwest 461 531 34,000  Level FlightAware
06:36AM 43.8290 7.3430 321° Northwest 461 531 34,000  Level FlightAware
06:37AM 43.8980 7.2730 324° Northwest 461 531 34,000  Level FlightAware
06:37AM 43.9660 7.2040 324° Northwest 462 532 34,000  Level FlightAware
06:38AM 44.0470 7.1220 324° Northwest 463 533 34,000  Level FlightAware
06:39AM 44.1150 7.0530 324° Northwest 465 535 34,000  Level FlightAware
06:39AM 44.1840 6.9820 324° Northwest 464 534 34,000  Level FlightAware
06:40AM 44.2610 6.9030 324° Northwest 464 534 34,000  Level FlightAware
06:41AM 44.3290 6.8330 324° Northwest 464 534 34,000  Level FlightAware
06:42AM 44.4080 6.7510 323° Northwest 464 534 34,000  Level FlightAware
06:42AM 44.4790 6.6810 325° Northwest 464 534 34,000  Level FlightAware
06:43AM 44.5490 6.6120 325° Northwest 464 534 34,000  Level FlightAware
06:44AM 44.6260 6.5350 325° Northwest 467 537 34,000  Level FlightAware
06:44AM 44.6970 6.4650 325° Northwest 466 536 34,000  Level FlightAware
06:45AM 44.7670 6.3940 324° Northwest 466 536 34,000  Level FlightAware
06:46AM 44.8480 6.3140 325° Northwest 465 535 34,000  Level FlightAware
06:46AM 44.9180 6.2430 324° Northwest 463 533 34,000  Level FlightAware
06:47AM 44.9910 6.1700 325° Northwest 456 525 34,000  Level FlightAware
06:48AM 45.0590 6.1010 324° Northwest 456 525 34,000  Level FlightAware
06:49AM 45.1420 6.0170 324° Northwest 457 526 34,000  Level FlightAware
06:49AM 45.2090 5.9490 324° Northwest 458 527 34,000  Level FlightAware
06:50AM 45.2900 5.8660 324° Northwest 458 527 34,000  Level FlightAware
06:51AM 45.3580 5.7960 324° Northwest 459 528 34,000  Level FlightAware
06:51AM 45.4280 5.7240 324° Northwest 460 529 34,000  Level FlightAware
06:52AM 45.4990 5.6510 324° Northwest 460 529 34,000  Level FlightAware
06:53AM 45.5710 5.5760 324° Northwest 460 529 34,000  Level FlightAware
06:53AM 45.6480 5.4970 324° Northwest 461 531 34,000  Level FlightAware
06:54AM 45.7020 5.4400 324° Northwest 460 529 34,000  Level FlightAware
06:55AM 45.7940 5.3440 324° Northwest 459 528 34,000  Level FlightAware
06:55AM 45.8550 5.2800 324° Northwest 458 527 34,000  Level FlightAware
06:56AM 45.9310 5.2000 324° Northwest 460 529 34,000  Level FlightAware
06:57AM 46.0200 5.1050 323° Northwest 459 528 34,000  Level FlightAware
06:58AM 46.0860 5.0360 324° Northwest 460 529 34,000  Level FlightAware
06:58AM 46.1570 4.9610 324° Northwest 467 537 34,000  Level FlightAware
06:59AM 46.2290 4.8840 324° Northwest 460 529 34,000  Level FlightAware
07:00AM 46.3190 4.7870 323° Northwest 461 531 34,000  Level FlightAware
07:01AM 46.4150 4.6900 325° Northwest 472 543 34,000  Level FlightAware
07:01AM 46.4900 4.6380 334° Northwest 475 547 34,000  Level FlightAware
07:02AM 46.6180 4.5760 342° North 483 556 34,000  Level FlightAware
07:03AM 46.7180 4.5390 346° North 482 555 34,000  Level FlightAware
07:04AM 46.8190 4.5000 345° North 481 554 34,000  Level FlightAware
07:05AM 46.9040 4.4680 346° North 482 555 34,000  Level FlightAware
07:05AM 47.0060 4.4280 345° North 482 555 34,000  Level FlightAware
07:06AM 47.0800 4.3990 345° North 482 555 34,000  Level FlightAware
07:07AM 47.1730 4.3440 338° Northwest 473 544 34,000  Level FlightAware
07:07AM 47.2500 4.2850 333° Northwest 475 547 34,000  Level FlightAware
07:08AM 47.3370 4.2180 332° Northwest 476 548 34,000  Level FlightAware
07:09AM 47.4250 4.1500 332° Northwest 473 544 34,000  Level FlightAware
07:10AM 47.5000 4.0920 332° Northwest 470 541 34,000  Level FlightAware
07:10AM 47.5770 4.0320 332° Northwest 470 541 34,000  Level FlightAware
07:11AM 47.6660 3.9620 332° Northwest 471 542 34,000  Level FlightAware
07:12AM 47.7410 3.9040 333° Northwest 471 542 34,000  Level FlightAware
07:12AM 47.8260 3.8370 332° Northwest 474 545 34,000 180 Level FlightAware
07:13AM 47.9100 3.7700 332° Northwest 476 548 34,300 540 Climbing FlightAware
07:14AM 47.9950 3.7030 332° Northwest 474 545 34,800 720 Climbing FlightAware
07:14AM 48.0710 3.6440 333° Northwest 470 541 35,400 900 Climbing FlightAware
07:15AM 48.1460 3.5830 332° Northwest 463 533 36,000 420 Climbing FlightAware
07:16AM 48.2230 3.5210 332° Northwest 464 534 36,000  Level FlightAware
07:17AM 48.3060 3.4550 332° Northwest 466 536 36,000  Level FlightAware
07:17AM 48.3930 3.3840 332° Northwest 465 535 36,000  Level FlightAware
07:18AM 48.4610 3.3280 331° Northwest 466 536 36,000  Level FlightAware
07:19AM 48.5410 3.2590 330° Northwest 457 526 36,000  Level FlightAware
07:19AM 48.6130 3.1650 319° Northwest 452 520 36,000  Level FlightAware
07:20AM 48.6710 3.0860 318° Northwest 455 524 36,000  Level FlightAware
07:21AM 48.7330 3.0040 319° Northwest 456 525 36,000  Level FlightAware
07:21AM 48.8100 2.9020 319° Northwest 456 525 36,000  Level FlightAware
07:22AM 48.8760 2.8150 319° Northwest 455 524 36,000  Level FlightAware
07:23AM 48.9460 2.7270 320° Northwest 463 533 36,000  Level FlightAware
07:23AM 48.9811 2.6997 333° Northwest 473 544 36,000  Level FlightAware ADS-B
07:23AM 49.0237 2.6768 341° North 484 557 36,000  Level FlightAware ADS-B
07:24AM 49.0927 2.6444 343° North 487 560 36,000  Level FlightAware ADS-B
07:25AM 49.1970 2.5950 343° North 489 563 36,000 -960 Level FlightAware
07:26AM 49.2960 2.5464 343° North 1 1 34,500  Descending FlightAware UK
07:26AM 49.2980 2.5480 343° North 488 562 36,000  Climbing FlightAware
07:26AM 49.3351 2.5301 343° North 1 1 34,500 -2,340 Descending FlightAware UK
07:26AM 49.3868 2.5053 343° North 468 539 34,500 3,600 Level FlightAware UK
07:26AM 49.3860 2.5060 343° North 491 565 36,000  Climbing FlightAware
07:27AM 49.4779 2.4622 343° North 472 543 34,500  Descending FlightAware UK
07:27AM 49.4820 2.4600 343° North 493 567 36,000 1,800 Climbing FlightAware
07:28AM 49.5800 2.4130 343° North 494 568 36,000 -1,500 Level FlightAware
07:28AM 49.6212 2.3926 343° North 472 543 34,500 -2,580 Descending FlightAware UK
07:28AM 49.6605 2.3738 343° North 472 543 34,500 3,900 Level FlightAware UK
07:28AM 49.6670 2.3710 343° North 496 571 36,000  Climbing FlightAware
07:29AM 49.7264 2.3424 343° North 472 543 34,500  Descending FlightAware UK
07:29AM 49.7530 2.3300 343° North 496 571 36,000 1,500 Climbing FlightAware
07:30AM 49.8500 2.2830 343° North 496 571 36,000  Level FlightAware
07:31AM 49.9400 2.2390 343° North 496 571 36,000 -1,500 Level FlightAware
07:31AM 49.9893 2.2149 343° North 470 541 34,500  Descending FlightAware UK
07:31AM 50.0380 2.1910 343° North 498 573 36,000  Climbing FlightAware
07:32AM 50.1076 2.1577 343° North 470 541 34,500  Descending FlightAware UK
07:32AM 50.1260 2.1480 343° North 500 575 36,000 1,740 Climbing FlightAware
07:33AM 50.2100 2.1070 343° North 501 577 36,000 -1,680 Level FlightAware
07:33AM 50.2527 2.0857 343° North 472 543 34,500 -2,340 Descending FlightAware UK
07:33AM 50.3030 2.0510 336° Northwest 472 543 34,500 3,000 Level FlightAware UK
07:33AM 50.3120 2.0410 336° Northwest 470 541 36,000 1,920 Climbing FlightAware
07:34AM 50.3700 1.9540 316° Northwest 440 506 36,000 -1,200 Level FlightAware
07:35AM 50.4214 1.8557 316° Northwest 474 545 34,500  Descending FlightAware UK
07:35AM 50.4200 1.8580 316° Northwest 441 507 36,000  Climbing FlightAware
07:35AM 50.4445 1.8108 316° Northwest 474 545 34,500  Descending FlightAware UK
07:35AM 50.4790 1.7450 316° Northwest 441 507 36,000  Climbing FlightAware
07:36AM 50.5060 1.6917 316° Northwest 476 548 34,500 -2,520 Descending FlightAware UK
07:36AM 50.5287 1.6474 309° West 478 550 34,500 4,080 Level FlightAware UK
07:36AM 50.5300 1.6450 309° West 442 509 36,000  Climbing FlightAware
07:36AM 50.5597 1.5872 309° West 476 548 34,500 -2,400 Descending FlightAware UK
07:37AM 50.5808 1.5418 306° West 478 550 34,500 3,600 Level FlightAware UK
07:37AM 50.5860 1.5270 306° West 423 487 36,000  Climbing FlightAware
07:37AM 50.6084 1.4620 306° West 476 548 34,500  Descending FlightAware UK
07:37AM 50.6150 1.4450 306° West 415 478 36,000  Climbing FlightAware
07:38AM 50.6360 1.3828 306° West 472 543 34,500 -2,520 Descending FlightAware UK
07:38AM 50.6524 1.3354 299° West 474 545 34,500 4,080 Level FlightAware UK
07:38AM 50.6520 1.3370 299° West 413 475 36,000  Climbing FlightAware
07:38AM 50.6743 1.2721 299° West 476 548 34,500 -2,400 Descending FlightAware UK
07:39AM 50.6905 1.2251 299° West 478 550 34,500 3,600 Level FlightAware UK
07:39AM 50.6950 1.2140 299° West 413 475 36,000  Climbing FlightAware
07:39AM 50.7233 1.1300 299° West 476 548 34,500  Descending FlightAware UK
07:40AM 50.7350 1.0960 299° West 413 475 36,000  Climbing FlightAware
07:40AM 50.7532 1.0428 298° West 36,000 -2,400 Level FlightAware ADS-B
07:40AM 50.7718 0.9875 298° West 474 545 34,500  Descending FlightAware UK
07:40AM 50.7802 0.9638 298° West 410 472 36,000 1,980 Climbing FlightAware ADS-B
07:41AM 50.8121 0.8698 298° West 409 471 36,000 -1,800 Level FlightAware ADS-B
07:41AM 50.8255 0.8298 298° West 474 545 34,500  Descending FlightAware UK
07:42AM 50.8404 0.7861 298° West 409 471 36,000  Climbing FlightAware ADS-B
07:42AM 50.8576 0.7350 298° West 470 541 34,500  Descending FlightAware UK
07:42AM 50.8679 0.7048 298° West 411 473 36,000  Climbing FlightAware ADS-B
07:42AM 50.8844 0.6558 298° West 472 543 34,500  Descending FlightAware UK
07:43AM 50.8947 0.6250 298° West 413 475 36,000  Climbing FlightAware ADS-B
07:43AM 50.9113 0.5759 298° West 472 543 34,500  Descending FlightAware UK
07:43AM 50.9260 0.5317 298° West 416 479 36,000  Climbing FlightAware ADS-B
07:43AM 50.9437 0.4790 298° West 474 545 34,500  Descending FlightAware UK
07:44AM 50.9581 0.4355 298° West 419 482 36,000 1,860 Climbing FlightAware ADS-B
07:44AM 50.9863 0.3510 298° West 418 481 36,000  Level FlightAware ADS-B
07:45AM 51.0148 0.2649 298° West 418 481 36,000  Level FlightAware ADS-B
07:45AM 51.0448 0.1744 298° West 417 480 36,000 -1,560 Level FlightAware ADS-B
07:46AM 51.0672 0.1064 298° West 478 550 34,500  Descending FlightAware UK
07:46AM 51.0775 0.0750 298° West 414 476 36,000  Climbing FlightAware ADS-B
07:46AM 51.0936 0.0260 298° West 478 550 34,500  Descending FlightAware UK
07:47AM 51.1066 -0.0137 298° West 414 476 36,000  Climbing FlightAware ADS-B
07:47AM 51.1200 -0.0548 298° West 478 550 34,500  Descending FlightAware UK
07:47AM 51.1336 -0.0962 298° West 413 475 36,000  Climbing FlightAware ADS-B
07:47AM 51.1517 -0.1518 298° West 476 548 34,500  Descending FlightAware UK
07:48AM 51.1610 -0.1803 298° West 414 476 36,000  Climbing FlightAware ADS-B
07:48AM 51.1832 -0.2490 298° West 478 550 34,500  Descending FlightAware UK
07:48AM 51.1888 -0.2660 298° West 411 473 36,000  Climbing FlightAware ADS-B
07:48AM 51.2038 -0.3131 298° West 476 548 34,500  Descending FlightAware UK
07:49AM 51.2153 -0.3479 298° West 411 473 36,000  Climbing FlightAware ADS-B
07:49AM 51.2297 -0.3926 298° West 472 543 34,500  Descending FlightAware UK
07:49AM 51.2415 -0.4292 298° West 413 475 36,000  Climbing FlightAware ADS-B
07:49AM 51.2557 -0.4732 298° West 474 545 34,500  Descending FlightAware UK
07:50AM 51.2682 -0.5123 298° West 415 478 36,000  Climbing FlightAware ADS-B
07:50AM 51.2816 -0.5539 298° West 474 545 34,500  Descending FlightAware UK
07:50AM 51.2950 -0.5962 298° West 413 475 36,000  Climbing FlightAware ADS-B
07:50AM 51.3129 -0.6518 298° West 470 541 34,500  Descending FlightAware UK
07:51AM 51.3219 -0.6800 298° West 416 479 36,000 2,220 Climbing FlightAware ADS-B
07:51AM 51.3481 -0.7627 297° West 419 482 36,000 -1,800 Level FlightAware ADS-B
07:51AM 51.3651 -0.8165 297° West 476 548 34,500  Descending FlightAware UK
07:52AM 51.3750 -0.8474 297° West 420 483 36,000 2,100 Climbing FlightAware ADS-B
07:52AM 51.4017 -0.9319 297° West 421 484 36,000 -1,860 Level FlightAware ADS-B
07:52AM 51.4176 -0.9825 297° West 476 548 34,500  Descending FlightAware UK
07:53AM 51.4280 -1.0155 297° West 424 488 36,000  Climbing FlightAware ADS-B
07:53AM 51.4440 -1.0662 297° West 478 550 34,500  Descending FlightAware UK
07:53AM 51.4562 -1.1054 297° West 425 489 36,000 3,180 Climbing FlightAware ADS-B
07:53AM 51.4688 -1.1463 296° West 424 488 36,000  Level FlightAware ADS-B
07:54AM 51.4817 -1.1958 293° West 418 481 36,000  Level FlightAware ADS-B
07:54AM 51.4913 -1.2427 288° West 413 475 36,000 -2,820 Level FlightAware ADS-B
07:54AM 51.4986 -1.2905 288° West 480 552 34,500  Descending FlightAware UK
07:55AM 51.5052 -1.3336 288° West 410 472 36,000  Climbing FlightAware ADS-B
07:55AM 51.5144 -1.3951 288° West 482 555 34,500  Descending FlightAware UK
07:55AM 51.5188 -1.4237 288° West 410 472 36,000  Climbing FlightAware ADS-B
07:55AM 51.5277 -1.4836 288° West 482 555 34,500  Descending FlightAware UK
07:56AM 51.5327 -1.5180 288° West 410 472 36,000 2,040 Climbing FlightAware ADS-B
07:56AM 51.5462 -1.6090 283° West 410 472 36,000 -1,680 Level FlightAware ADS-B
07:56AM 51.5563 -1.6784 283° West 480 552 34,500  Descending FlightAware UK
07:57AM 51.5618 -1.7159 283° West 413 475 36,000  Climbing FlightAware ADS-B
07:57AM 51.5718 -1.7855 283° West 480 552 34,500  Descending FlightAware UK
07:57AM 51.5759 -1.8134 283° West 415 478 36,000 2,220 Climbing FlightAware ADS-B
07:58AM 51.5891 -1.9048 283° West 416 479 36,000  Level FlightAware ADS-B
07:58AM 51.6009 -1.9866 283° West 417 480 36,000 -2,100 Level FlightAware ADS-B
07:58AM 51.6082 -2.0370 283° West 484 557 34,500  Descending FlightAware UK
07:59AM 51.6140 -2.0782 283° West 417 480 36,000  Climbing FlightAware ADS-B
07:59AM 51.6209 -2.1270 283° West 482 555 34,500  Descending FlightAware UK
07:59AM 51.6299 -2.1901 283° West 414 476 36,000  Climbing FlightAware ADS-B
08:00AM 51.6388 -2.2533 283° West 480 552 34,500  Descending FlightAware UK
08:00AM 51.6435 -2.2872 283° West 414 476 36,000 2,040 Climbing FlightAware ADS-B
08:00AM 51.6567 -2.3818 283° West 418 481 36,000 -1,680 Level FlightAware ADS-B
08:01AM 51.6664 -2.4511 283° West 484 557 34,500  Descending FlightAware UK
08:01AM 51.6699 -2.4757 283° West 419 482 36,000  Climbing FlightAware ADS-B
08:01AM 51.6765 -2.5239 283° West 482 555 34,500  Descending FlightAware UK
08:01AM 51.6828 -2.5691 283° West 419 482 36,000  Climbing FlightAware ADS-B
08:02AM 51.6892 -2.6152 283° West 482 555 34,500  Descending FlightAware UK
08:02AM 51.6973 -2.6750 283° West 420 483 36,000  Climbing FlightAware ADS-B
08:02AM 51.7040 -2.7243 283° West 482 555 34,500  Descending FlightAware UK
08:02AM 51.7105 -2.7724 283° West 421 484 36,000 1,860 Climbing FlightAware ADS-B
08:03AM 51.7238 -2.8702 282° West 423 487 36,000 -1,800 Level FlightAware ADS-B
08:03AM 51.7312 -2.9256 282° West 484 557 34,500  Descending FlightAware UK
08:04AM 51.7368 -2.9671 282° West 420 483 36,000  Climbing FlightAware ADS-B
08:04AM 51.7442 -3.0173 282° West 482 555 34,500  Descending FlightAware UK
08:04AM 51.7586 -3.0877 282° West 424 488 36,000  Climbing FlightAware ADS-B
08:05AM 51.7696 -3.1433 282° West 478 550 34,500  Descending FlightAware UK
08:05AM 51.7730 -3.1630 282° West 426 490 36,000  Climbing FlightAware
08:05AM 51.7876 -3.2340 282° West 478 550 34,500  Descending FlightAware UK
08:05AM 51.7961 -3.2771 282° West 428 493 36,000  Climbing FlightAware ADS-B
08:06AM 51.8197 -3.3975 282° West 482 555 34,500  Descending FlightAware UK
08:06AM 51.8240 -3.4180 282° West 428 493 36,000  Climbing FlightAware
08:06AM 51.8377 -3.4890 282° West 480 552 34,500  Descending FlightAware UK
08:07AM 51.8500 -3.5500 282° West 427 491 36,000  Climbing FlightAware
08:07AM 51.8699 -3.6535 282° West 474 545 34,500  Descending FlightAware UK
08:07AM 51.8740 -3.6780 282° West 433 498 36,000  Climbing FlightAware
08:08AM 51.8875 -3.7459 282° West 484 557 34,500 -2,340 Descending FlightAware UK
08:08AM 51.8984 -3.8023 287° West 482 555 34,500 3,720 Level FlightAware UK
08:08AM 51.9000 -3.8110 287° West 437 503 36,000 1,920 Climbing FlightAware
08:09AM 51.9240 -3.9360 287° West 438 504 36,000  Level FlightAware
08:09AM 51.9323 -3.9793 287° West 438 504 36,000 -3,480 Level FlightAware ADS-B
08:09AM 51.9412 -4.0264 287° West 482 555 34,500  Descending FlightAware UK
08:10AM 51.9541 -4.0941 287° West 437 503 36,000  Climbing FlightAware ADS-B
08:10AM 51.9662 -4.1577 287° West 482 555 34,500  Descending FlightAware UK
08:10AM 51.9750 -4.2070 287° West 437 503 36,000  Climbing FlightAware
08:11AM 51.9873 -4.2704 287° West 482 555 34,500 -2,460 Descending FlightAware UK
08:11AM 51.9978 -4.3268 287° West 484 557 34,500 4,260 Level FlightAware UK
08:11AM 51.9980 -4.3300 287° West 438 504 36,000 4,260 Climbing FlightAware
08:11AM 52.0106 -4.3945 288° West 439 505 36,000 -2,760 Level FlightAware ADS-B
08:12AM 52.0189 -4.4398 288° West 484 557 34,500 -1,800 Descending FlightAware UK
08:12AM 52.0399 -4.5530 287° West 484 557 34,500 1,680 Level FlightAware UK
08:12AM 52.0480 -4.5960 287° West 437 503 36,000  Climbing FlightAware
08:13AM 52.0609 -4.6660 287° West 482 555 34,500  Descending FlightAware UK
08:13AM 52.0740 -4.7390 287° West 436 502 36,000  Climbing FlightAware
08:13AM 52.0850 -4.7978 287° West 478 550 34,500 -2,700 Descending FlightAware UK
08:14AM 52.0951 -4.8537 286° West 482 555 34,500 3,900 Level FlightAware UK
08:14AM 52.0970 -4.8630 286° West 437 503 36,000  Climbing FlightAware
08:14AM 52.1087 -4.9298 286° West 484 557 34,500  Descending FlightAware UK
08:15AM 52.1220 -5.0050 286° West 439 505 36,000  Climbing FlightAware
08:15AM 52.1324 -5.0617 286° West 484 557 34,500 -2,760 Descending FlightAware UK
08:15AM 52.1427 -5.1186 286° West 484 557 34,500 3,600 Level FlightAware UK
08:15AM 52.1440 -5.1260 286° West 439 505 36,000  Climbing FlightAware
08:16AM 52.1564 -5.1946 286° West 484 557 34,500 -2,580 Descending FlightAware UK
08:16AM 52.1666 -5.2516 286° West 482 555 34,500 3,900 Level FlightAware UK
08:16AM 52.1680 -5.2570 286° West 438 504 36,000  Climbing FlightAware
08:16AM 52.1800 -5.3276 286° West 482 555 34,500  Descending FlightAware UK
08:17AM 52.1960 -5.4020 286° West 444 511 36,000  Climbing FlightAware
08:17AM 52.2182 -5.4737 286° West 488 562 34,500  Descending FlightAware UK
08:17AM 52.2350 -5.5210 286° West 448 516 36,000  Climbing FlightAware
08:18AM 52.2558 -5.5790 286° West 480 552 34,500 -2,520 Descending FlightAware UK
08:18AM 52.2742 -5.6316 300° West 480 552 34,500 3,300 Level FlightAware UK
08:18AM 52.2810 -5.6510 300° West 448 516 36,000  Climbing FlightAware
08:18AM 52.3051 -5.7193 300° West 482 555 34,500  Descending FlightAware UK
08:19AM 52.3230 -5.7700 300° West 447 514 36,000  Climbing FlightAware
08:19AM 52.3418 -5.8249 300° West 484 557 34,500 -2,580 Descending FlightAware UK
08:19AM 52.3602 -5.8778 300° West 482 555 34,500 3,900 Level FlightAware UK
08:19AM 52.3640 -5.8880 300° West 448 516 36,000  Climbing FlightAware
08:20AM 52.3846 -5.9482 300° West 480 552 34,500 -2,460 Descending FlightAware UK
08:20AM 52.4030 -6.0012 300° West 484 557 34,500 3,420 Level FlightAware UK
08:20AM 52.4090 -6.0190 300° West 450 518 36,000  Climbing FlightAware
08:20AM 52.4272 -6.0715 300° West 484 557 34,500 -2,700 Descending FlightAware UK
08:21AM 52.4456 -6.1248 300° West 482 555 34,500 3,720 Level FlightAware UK
08:21AM 52.4500 -6.1370 300° West 451 519 36,000  Climbing FlightAware
08:21AM 52.4702 -6.1960 300° West 484 557 34,500 -2,520 Descending FlightAware UK
08:21AM 52.4886 -6.2497 299° West 486 559 34,500 4,080 Level FlightAware UK
08:21AM 52.4880 -6.2490 299° West 452 520 36,000  Climbing FlightAware
08:22AM 52.5131 -6.3214 299° West 482 555 34,500 -2,400 Descending FlightAware UK
08:22AM 52.5314 -6.3751 299° West 484 557 34,500 4,500 Level FlightAware UK
08:22AM 52.5290 -6.3690 299° West 450 518 36,000  Climbing FlightAware
08:22AM 52.5498 -6.4288 299° West 482 555 34,500 -2,700 Descending FlightAware UK
08:23AM 52.5680 -6.4825 299° West 482 555 34,500 3,060 Level FlightAware UK
08:23AM 52.5750 -6.5020 299° West 450 518 36,000  Climbing FlightAware
08:23AM 52.5983 -6.5720 299° West 482 555 34,500  Descending FlightAware UK
08:23AM 52.6120 -6.6110 299° West 453 521 36,000  Climbing FlightAware
08:24AM 52.6165 -6.6258 299° West 484 557 34,500 -4,500 Descending FlightAware UK
08:24AM 52.6348 -6.6797 299° West 490 564 34,500  Level FlightAware UK
08:24AM 52.6530 -6.7340 299° West 488 562 34,500 3,600 Level FlightAware UK
08:24AM 52.6560 -6.7420 299° West 451 519 36,000  Climbing FlightAware
08:25AM 52.6773 -6.8062 299° West 478 550 34,500 -2,580 Descending FlightAware UK
08:25AM 52.6953 -6.8602 299° West 480 552 34,500 3,180 Level FlightAware UK
08:25AM 52.7000 -6.8760 299° West 447 514 36,000  Climbing FlightAware
08:25AM 52.7254 -6.9502 299° West 484 557 34,500 -2,400 Descending FlightAware UK
08:26AM 52.7434 -7.0043 299° West 482 555 34,500 3,600 Level FlightAware UK
08:26AM 52.7440 -7.0080 299° West 447 514 36,000  Climbing FlightAware
08:26AM 52.7674 -7.0767 299° West 480 552 34,500  Descending FlightAware UK
08:26AM 52.7850 -7.1290 299° West 447 514 36,000  Climbing FlightAware
08:26AM 52.7915 -7.1489 299° West 482 555 34,500 -4,740 Descending FlightAware UK
08:27AM 52.8094 -7.2032 299° West 486 559 34,500 2,040 Level FlightAware UK
08:27AM 52.8310 -7.2690 299° West 446 513 36,000  Climbing FlightAware
08:27AM 52.8509 -7.3295 299° West 484 557 34,500 -2,700 Descending FlightAware UK
08:28AM 52.8687 -7.3838 299° West 484 557 34,500 3,720 Level FlightAware UK
08:28AM 52.8690 -7.3850 299° West 449 517 36,000  Climbing FlightAware
08:28AM 52.8923 -7.4562 299° West 482 555 34,500 -2,520 Descending FlightAware UK
08:28AM 52.9101 -7.5105 298° West 480 552 34,500 4,080 Level FlightAware UK
08:28AM 52.9100 -7.5100 298° West 449 517 36,000  Climbing FlightAware
08:29AM 52.9396 -7.6011 298° West 484 557 34,500  Descending FlightAware UK
08:29AM 52.9470 -7.6260 298° West 448 516 36,000  Climbing FlightAware
08:29AM 52.9690 -7.6918 298° West 478 550 34,500 -2,700 Descending FlightAware UK
08:30AM 52.9865 -7.7462 298° West 480 552 34,500 3,060 Level FlightAware UK
08:30AM 52.9930 -7.7670 298° West 448 516 36,000  Climbing FlightAware
08:30AM 53.0157 -7.8369 298° West 480 552 34,500 -2,460 Descending FlightAware UK
08:31AM 53.0332 -7.8915 298° West 480 552 34,500 3,420 Level FlightAware UK
08:31AM 53.0360 -7.9020 298° West 449 517 36,000  Climbing FlightAware
08:31AM 53.0566 -7.9643 298° West 484 557 34,500 -2,700 Descending FlightAware UK
08:31AM 53.0741 -8.0191 298° West 482 555 34,500 3,720 Level FlightAware UK
08:31AM 53.0750 -8.0210 298° West 449 517 36,000  Climbing FlightAware
08:32AM 53.0974 -8.0922 298° West 478 550 34,500 -2,520 Descending FlightAware UK
08:32AM 53.1149 -8.1471 298° West 486 559 34,500 4,080 Level FlightAware UK
08:32AM 53.1140 -8.1470 298° West 450 518 36,000  Climbing FlightAware
08:32AM 53.1381 -8.2206 298° West 484 557 34,500  Descending FlightAware UK
08:33AM 53.1470 -8.2500 298° West 450 518 36,000  Climbing FlightAware
08:33AM 53.1671 -8.3125 298° West 484 557 34,500  Descending FlightAware UK
08:33AM 53.1770 -8.3440 298° West 449 517 36,000  Climbing FlightAware
08:33AM 53.1960 -8.4043 298° West 484 557 34,500 -2,760 Descending FlightAware UK
08:34AM 53.2130 -8.4588 298° West 482 555 34,500 3,600 Level FlightAware UK
08:34AM 53.2150 -8.4670 298° West 446 513 36,000  Climbing FlightAware
08:34AM 53.2360 -8.5321 298° West 484 557 34,500 -2,580 Descending FlightAware UK
08:34AM 53.2532 -8.5869 298° West 484 557 34,500 3,180 Level FlightAware UK
08:34AM 53.2570 -8.6000 298° West 441 507 36,000  Climbing FlightAware
08:35AM 53.2816 -8.6782 298° West 480 552 34,500 -2,400 Descending FlightAware UK
08:35AM 53.2986 -8.7332 297° West 482 555 34,500 4,500 Level FlightAware UK
08:35AM 53.2970 -8.7280 297° West 442 509 36,000  Climbing FlightAware
08:35AM 53.3155 -8.7880 297° West 482 555 34,500 -2,700 Descending FlightAware UK
08:36AM 53.3324 -8.8430 297° West 480 552 34,500 3,060 Level FlightAware UK
08:36AM 53.3390 -8.8650 297° West 441 507 36,000  Climbing FlightAware
08:36AM 53.3606 -8.9344 297° West 484 557 34,500 -2,460 Descending FlightAware UK
08:37AM 53.3775 -8.9894 297° West 482 555 34,500 4,260 Level FlightAware UK
08:37AM 53.3770 -8.9890 297° West 440 506 36,000 1,860 Climbing FlightAware
08:37AM 53.4190 -9.1240 298° West 441 507 36,000  Level FlightAware
08:38AM 53.4570 -9.2490 297° West 442 509 36,000  Level FlightAware
08:39AM 53.4980 -9.3870 297° West 442 509 36,000  Level FlightAware
08:39AM 53.5360 -9.5120 297° West 444 511 36,000  Level FlightAware
08:40AM 53.5730 -9.6350 297° West 443 510 36,000  Level FlightAware
08:41AM 53.6140 -9.7730 297° West 443 510 36,000  Level FlightAware
08:41AM 53.6500 -9.8970 296° West 445 512 36,000  Level FlightAware
08:42AM 53.6910 -10.0360 297° West 447 514 36,000  Level FlightAware
08:43AM 53.7280 -10.1630 296° West 451 519 36,000 300 Level FlightAware
08:44AM 53.7660 -10.2930 296° West 449 517 36,400 600 Climbing FlightAware
08:44AM 53.7980 -10.4030 296° West 445 512 36,800 300 Climbing FlightAware
08:45AM 53.8430 -10.5600 296° West 450 518 36,900 120 Climbing FlightAware
08:46AM 53.8790 -10.6860 296° West 454 522 37,000 60 Climbing FlightAware
08:47AM 53.9330 -10.8760 296° West 451 519 37,000  Level FlightAware
08:47AM 53.9530 -10.9460 296° West 452 520 37,000  Level FlightAware
08:48AM 54.0080 -11.1430 295° West 454 522 37,000  Level FlightAware
08:49AM 54.0440 -11.2700 296° West 454 522 37,000  Level FlightAware
08:49AM 54.0790 -11.3960 295° West 452 520 37,000  Level FlightAware
08:50AM 54.1130 -11.5210 295° West 453 521 37,000  Level FlightAware
08:51AM 54.1560 -11.6770 295° West 453 521 37,000  Level FlightAware
08:52AM 54.1950 -11.8200 295° West 453 521 37,000  Level FlightAware
08:52AM 54.2210 -11.9150 295° West 452 520 37,000  Level FlightAware
08:53AM 54.2910 -12.1780 295° West 452 520 37,000  Level FlightAware
08:54AM 54.3370 -12.3510 295° West 447 514 37,000  Level FlightAware
08:55AM 54.3720 -12.4830 295° West 450 518 37,000  Level FlightAware
08:56AM 54.4050 -12.6060 295° West 447 514 37,000  Level FlightAware
08:57AM 54.4600 -12.8160 294° West 446 513 37,000  Level FlightAware
08:58AM 54.5180 -13.0430 294° West 448 516 37,000  Level FlightAware
08:59AM 54.5650 -13.2240 294° West 447 514 37,000  Level FlightAware
08:59AM 54.5980 -13.3550 294° West 448 516 37,000  Level FlightAware
09:00AM 54.6460 -13.5470 293° West 450 518 37,000  Level FlightAware
09:01AM 54.6920 -13.7270 294° West 449 517 37,000  Level FlightAware
09:02AM 54.7320 -13.8870 293° West 449 517 37,000  Level FlightAware
09:03AM 54.7660 -14.0270 293° West 449 517 37,000  Level FlightAware
09:04AM 54.7970 -14.1550 293° West 450 518 37,000  Level FlightAware
09:04AM 54.8250 -14.2680 293° West 450 518 37,000  Level FlightAware
09:05AM 54.8600 -14.4090 293° West 450 518 37,000  Level FlightAware
09:06AM 54.8870 -14.5220 293° West 450 518 37,000  Level FlightAware
09:06AM 54.9150 -14.6360 293° West 450 518 37,000  Level FlightAware
09:07AM 54.9430 -14.7490 293° West 450 518 37,000  Level FlightAware
09:08AM 54.9700 -14.8630 292° West 450 518 37,000  Level FlightAware
09:09AM 55.0050 -15.0050 293° West 450 518 37,000  Level FlightAware
09:09AM 55.0320 -15.1180 293° West 450 518 37,000  Level FlightAware
09:10AM 55.0600 -15.2320 293° West 450 518 37,000  Level FlightAware
09:11AM 55.0880 -15.3460 293° West 450 518 37,000  Level FlightAware
09:11AM 55.1150 -15.4600 293° West 450 518 37,000  Level FlightAware
09:12AM 55.1500 -15.6020 293° West 450 518 37,000  Level FlightAware
09:13AM 55.1780 -15.7160 293° West 450 518 37,000  Level FlightAware
09:15AM 55.1918 -16.0731 274° West  Level Estimated
09:16AM 55.1991 -16.2735 274° West  Level Estimated
09:17AM 55.2061 -16.4739 274° West  Level Estimated
09:18AM 55.2130 -16.6835 273° West  Level Estimated
09:19AM 55.2196 -16.8931 273° West  Level Estimated
09:20AM 55.2258 -17.1029 273° West  Level Estimated
09:21AM 55.2316 -17.3127 273° West  Level Estimated
09:22AM 55.2371 -17.5225 273° West  Level Estimated
09:23AM 55.2422 -17.7324 273° West  Level Estimated
09:24AM 55.2470 -17.9424 272° West  Level Estimated
09:25AM 55.2514 -18.1524 272° West  Level Estimated
09:26AM 55.2555 -18.3625 272° West  Level Estimated
09:27AM 55.2592 -18.5726 272° West  Level Estimated
09:28AM 55.2625 -18.7827 272° West  Level Estimated
09:29AM 55.2655 -18.9929 272° West  Level Estimated
09:30AM 55.2681 -19.2031 271° West  Level Estimated
09:31AM 55.2703 -19.4133 271° West  Level Estimated
09:31AM 55.0000 -20.0000 274° West 429 494 37,000  Level ETMS Enhanced Traffic Management System
09:32AM 55.2722 -19.6235 271° West  Level Estimated
09:33AM 55.2737 -19.8338 271° West  Level Estimated
09:34AM 55.2749 -20.0425 271° West  Level Estimated
09:35AM 55.2757 -20.2512 270° West  Level Estimated
09:36AM 55.2761 -20.4599 270° West  Level Estimated
09:37AM 55.2762 -20.6686 270° West  Level Estimated
09:38AM 55.0511 -21.4553 273° West 429 494 37,000  Level FlightAware Transoceanic
09:39AM 55.0569 -21.6635 273° West 429 494 37,000  Level FlightAware Transoceanic
09:40AM 55.0625 -21.8717 273° West 429 494 37,000  Level FlightAware Transoceanic
09:41AM 55.0676 -22.0800 272° West 429 494 37,000  Level FlightAware Transoceanic
09:42AM 55.0724 -22.2884 272° West 429 494 37,000  Level FlightAware Transoceanic
09:43AM 55.0769 -22.4968 272° West 429 494 37,000  Level FlightAware Transoceanic
09:44AM 55.0810 -22.7052 272° West 429 494 37,000  Level FlightAware Transoceanic
09:45AM 55.0847 -22.9137 272° West 429 494 37,000  Level FlightAware Transoceanic
09:46AM 55.0881 -23.1222 272° West 429 494 37,000  Level FlightAware Transoceanic
09:47AM 55.0912 -23.3308 271° West 429 494 37,000  Level FlightAware Transoceanic
09:48AM 55.0938 -23.5394 271° West 429 494 37,000  Level FlightAware Transoceanic
09:49AM 55.0961 -23.7480 271° West 429 494 37,000  Level FlightAware Transoceanic
09:50AM 55.0981 -23.9566 271° West 429 494 37,000  Level FlightAware Transoceanic
09:51AM 55.0997 -24.1653 271° West 429 494 37,000  Level FlightAware Transoceanic
09:52AM 55.1010 -24.3739 271° West 429 494 37,000  Level FlightAware Transoceanic
09:53AM 55.1018 -24.5826 270° West 429 494 37,000  Level FlightAware Transoceanic
09:54AM 55.1024 -24.7913 270° West 429 494 37,000  Level FlightAware Transoceanic
09:55AM 55.1026 -25.0000 270° West 429 494 37,000  Level FlightAware Transoceanic
09:56AM 55.1024 -25.2087 270° West 429 494 37,000  Level FlightAware Transoceanic
09:57AM 55.1018 -25.4174 270° West 429 494 37,000  Level FlightAware Transoceanic
09:58AM 55.1010 -25.6261 269° West 429 494 37,000  Level FlightAware Transoceanic
09:59AM 55.0997 -25.8347 269° West 429 494 37,000  Level FlightAware Transoceanic
10:00AM 55.0981 -26.0434 269° West 429 494 37,000  Level FlightAware Transoceanic
10:01AM 55.0961 -26.2520 269° West 429 494 37,000  Level FlightAware Transoceanic
10:02AM 55.0938 -26.4606 269° West 429 494 37,000  Level FlightAware Transoceanic
10:03AM 55.0912 -26.6692 269° West 429 494 37,000  Level FlightAware Transoceanic
10:04AM 55.0881 -26.8778 268° West 429 494 37,000  Level FlightAware Transoceanic
10:05AM 55.0847 -27.0863 268° West 429 494 37,000  Level FlightAware Transoceanic
10:06AM 55.0810 -27.2948 268° West 429 494 37,000  Level FlightAware Transoceanic
10:07AM 55.0769 -27.5032 268° West 429 494 37,000  Level FlightAware Transoceanic
10:08AM 55.0724 -27.7116 268° West 429 494 37,000  Level FlightAware Transoceanic
10:09AM 55.0676 -27.9200 268° West 429 494 37,000  Level FlightAware Transoceanic
10:10AM 55.0625 -28.1283 267° West 429 494 37,000  Level FlightAware Transoceanic
10:11AM 55.0569 -28.3365 267° West 429 494 37,000  Level FlightAware Transoceanic
10:12AM 55.0511 -28.5447 267° West 429 494 37,000  Level FlightAware Transoceanic
10:13AM 55.0448 -28.7528 267° West 429 494 37,000  Level FlightAware Transoceanic
10:14AM 55.0382 -28.9608 267° West 429 494 37,000  Level FlightAware Transoceanic
10:15AM 55.0313 -29.1688 267° West 429 494 37,000  Level FlightAware Transoceanic
10:16AM 55.0240 -29.3768 266° West 429 494 37,000  Level FlightAware Transoceanic
10:17AM 55.0164 -29.5846 266° West 429 494 37,000  Level FlightAware Transoceanic
10:18AM 55.0084 -29.7923 266° West 429 494 37,000  Level FlightAware Transoceanic
10:19AM 55.0000 -29.9991 266° West  Level FlightAware Approximate
10:20AM 54.9906 -30.2057 266° West  Level FlightAware Approximate
10:21AM 55.0083 -30.2050 274° West  Level FlightAware Approximate
10:22AM 55.0162 -30.4119 274° West  Level FlightAware Approximate
10:23AM 55.0238 -30.6173 274° West  Level FlightAware Approximate
10:24AM 55.0310 -30.8229 274° West  Level FlightAware Approximate
10:25AM 55.0379 -31.0285 273° West  Level FlightAware Approximate
10:26AM 55.0444 -31.2342 273° West  Level FlightAware Approximate
10:27AM 55.0506 -31.4400 273° West  Level FlightAware Approximate
10:28AM 55.0565 -31.6458 273° West  Level FlightAware Approximate
10:29AM 55.0620 -31.8517 273° West  Level FlightAware Approximate
10:30AM 55.0671 -32.0576 273° West  Level FlightAware Approximate
10:31AM 55.0719 -32.2636 272° West  Level FlightAware Approximate
10:32AM 55.0764 -32.4696 272° West  Level FlightAware Approximate
10:33AM 55.0804 -32.6757 272° West  Level FlightAware Approximate
10:34AM 55.0842 -32.8818 272° West  Level FlightAware Approximate
10:35AM 55.0876 -33.0880 272° West  Level FlightAware Approximate
10:36AM 55.0907 -33.2942 272° West  Level FlightAware Approximate
10:37AM 55.0934 -33.5004 271° West  Level FlightAware Approximate
10:38AM 55.0957 -33.7066 271° West  Level FlightAware Approximate
10:39AM 55.0977 -33.9129 271° West  Level FlightAware Approximate
10:40AM 55.0994 -34.1192 271° West  Level FlightAware Approximate
10:41AM 55.1007 -34.3255 271° West  Level FlightAware Approximate
10:42AM 55.1017 -34.5318 271° West  Level FlightAware Approximate
10:43AM 55.1023 -34.7381 270° West  Level FlightAware Approximate
10:44AM 55.1026 -34.9444 270° West  Level FlightAware Approximate
10:45AM 55.1025 -35.1508 270° West  Level FlightAware Approximate
10:46AM 55.1021 -35.3571 270° West  Level FlightAware Approximate
10:47AM 55.1013 -35.5634 270° West  Level FlightAware Approximate
10:48AM 55.1002 -35.7697 270° West  Level FlightAware Approximate
10:49AM 55.0987 -35.9760 269° West  Level FlightAware Approximate
10:50AM 55.0969 -36.1823 269° West  Level FlightAware Approximate
10:51AM 55.0947 -36.3885 269° West  Level FlightAware Approximate
10:52AM 55.0922 -36.5948 269° West  Level FlightAware Approximate
10:53AM 55.0893 -36.8010 269° West  Level FlightAware Approximate
10:54AM 55.0861 -37.0071 269° West  Level FlightAware Approximate
10:55AM 55.0825 -37.2133 268° West  Level FlightAware Approximate
10:56AM 55.0786 -37.4194 268° West  Level FlightAware Approximate
10:57AM 55.0743 -37.6255 268° West  Level FlightAware Approximate
10:58AM 55.0697 -37.8315 268° West  Level FlightAware Approximate
10:59AM 55.0648 -38.0374 268° West  Level FlightAware Approximate
11:00AM 55.0595 -38.2433 268° West  Level FlightAware Approximate
11:01AM 55.0538 -38.4492 267° West  Level FlightAware Approximate
11:02AM 55.0478 -38.6550 267° West  Level FlightAware Approximate
11:03AM 55.0415 -38.8607 267° West  Level FlightAware Approximate
11:04AM 55.0348 -39.0664 267° West  Level FlightAware Approximate
11:05AM 55.0277 -39.2719 267° West  Level FlightAware Approximate
11:06AM 55.0204 -39.4775 266° West  Level FlightAware Approximate
11:07AM 55.0126 -39.6829 266° West  Level FlightAware Approximate
11:08AM 55.0045 -39.8883 266° West  Level FlightAware Approximate
11:09AM 54.9946 -40.0933 264° West  Level FlightAware Approximate
11:10AM 54.9825 -40.2980 264° West  Level FlightAware Approximate
11:11AM 54.9700 -40.5032 264° West  Level FlightAware Approximate
11:12AM 54.9571 -40.7084 264° West  Level FlightAware Approximate
11:13AM 54.9440 -40.9133 264° West  Level FlightAware Approximate
11:14AM 54.9304 -41.1182 264° West  Level FlightAware Approximate
11:15AM 54.9165 -41.3229 263° West  Level FlightAware Approximate
11:16AM 54.9023 -41.5275 263° West  Level FlightAware Approximate
11:17AM 54.8878 -41.7319 263° West  Level FlightAware Approximate
11:18AM 54.8728 -41.9362 263° West  Level FlightAware Approximate
11:19AM 54.8576 -42.1403 263° West  Level FlightAware Approximate
11:20AM 54.8420 -42.3443 263° West  Level FlightAware Approximate
11:21AM 54.8261 -42.5481 262° West  Level FlightAware Approximate
11:22AM 54.8098 -42.7518 262° West  Level FlightAware Approximate
11:23AM 54.7932 -42.9552 262° West  Level FlightAware Approximate
11:24AM 54.7762 -43.1586 262° West  Level FlightAware Approximate
11:25AM 54.7589 -43.3617 262° West  Level FlightAware Approximate
11:26AM 54.7413 -43.5647 262° West  Level FlightAware Approximate
11:27AM 54.7233 -43.7675 261° West  Level FlightAware Approximate
11:28AM 54.7050 -43.9701 261° West  Level FlightAware Approximate
11:29AM 54.6864 -44.1725 261° West  Level FlightAware Approximate
11:30AM 54.6674 -44.3747 261° West  Level FlightAware Approximate
11:31AM 54.6480 -44.5768 261° West  Level FlightAware Approximate
11:32AM 54.6284 -44.7786 261° West  Level FlightAware Approximate
11:33AM 54.6084 -44.9803 260° West  Level FlightAware Approximate
11:34AM 54.5881 -45.1817 260° West  Level FlightAware Approximate
11:35AM 54.5674 -45.3830 260° West  Level FlightAware Approximate
11:36AM 54.5464 -45.5840 260° West  Level FlightAware Approximate
11:37AM 54.5251 -45.7849 260° West  Level FlightAware Approximate
11:38AM 54.5034 -45.9855 260° West  Level FlightAware Approximate
11:39AM 54.4814 -46.1859 259° West  Level FlightAware Approximate
11:40AM 54.4591 -46.3861 259° West  Level FlightAware Approximate
11:41AM 54.4365 -46.5860 259° West  Level FlightAware Approximate
11:42AM 54.4135 -46.7858 259° West  Level FlightAware Approximate
11:43AM 54.3902 -46.9853 259° West  Level FlightAware Approximate
11:44AM 54.3665 -47.1846 259° West  Level FlightAware Approximate
11:45AM 54.3429 -47.3838 259° West  Level FlightAware Approximate
11:46AM 54.3190 -47.5828 258° West  Level FlightAware Approximate
11:47AM 54.2948 -47.7816 258° West  Level FlightAware Approximate
11:48AM 54.2702 -47.9801 258° West  Level FlightAware Approximate
11:49AM 54.2454 -48.1783 258° West  Level FlightAware Approximate
11:50AM 54.2202 -48.3764 258° West  Level FlightAware Approximate
11:51AM 54.1946 -48.5742 258° West  Level FlightAware Approximate
11:52AM 54.1688 -48.7717 257° West  Level FlightAware Approximate
11:53AM 54.1426 -48.9690 257° West  Level FlightAware Approximate
11:54AM 54.1161 -49.1660 257° West  Level FlightAware Approximate
11:55AM 54.0893 -49.3628 257° West  Level FlightAware Approximate
11:56AM 54.0621 -49.5593 257° West  Level FlightAware Approximate
11:57AM 54.0347 -49.7556 257° West  Level FlightAware Approximate
11:58AM 54.0069 -49.9516 257° West  Level FlightAware Approximate
11:59AM 53.9676 -50.1417 249° West  Level FlightAware Approximate
12:00PM 53.9243 -50.3291 249° West  Level FlightAware Approximate
12:01PM 53.8808 -50.5161 249° West  Level FlightAware Approximate
12:02PM 53.8370 -50.7028 248° West  Level FlightAware Approximate
12:03PM 53.7929 -50.8890 248° West  Level FlightAware Approximate
12:04PM 53.7485 -51.0748 248° West  Level FlightAware Approximate
12:05PM 53.7038 -51.2603 248° West  Level FlightAware Approximate
12:06PM 53.6589 -51.4453 248° West  Level FlightAware Approximate
12:07PM 53.6137 -51.6300 248° West  Level FlightAware Approximate
12:08PM 53.5681 -51.8142 247° West  Level FlightAware Approximate
12:09PM 53.5223 -51.9981 247° West  Level FlightAware Approximate
12:10PM 53.4762 -52.1815 247° West  Level FlightAware Approximate
12:11PM 53.4299 -52.3646 247° West  Level FlightAware Approximate
12:12PM 53.3832 -52.5472 247° West  Level FlightAware Approximate
12:13PM 53.3363 -52.7295 247° West  Level FlightAware Approximate
12:13PM 53.3167 -53.1000 246° West 450 518 37,000  Level Gander Center
12:14PM 53.2891 -52.9114 247° West  Level FlightAware Approximate
12:14PM 53.2667 -53.2833 246° West 440 506 37,000  Level Gander Center
12:15PM 53.2416 -53.0928 246° West  Level FlightAware Approximate
12:15PM 53.2333 -53.4833 255° West 440 506 37,000  Level Gander Center
12:16PM 53.1939 -53.2739 246° West  Level FlightAware Approximate
12:16PM 53.1667 -53.6833 241° Southwest 450 518 37,000  Level Gander Center
12:17PM 53.1458 -53.4545 246° West  Level FlightAware Approximate
12:17PM 53.1333 -53.8667 253° West 440 506 37,000  Level Gander Center
12:18PM 53.0975 -53.6348 246° West  Level FlightAware Approximate
12:18PM 53.0833 -54.0667 247° West 440 506 37,000  Level Gander Center
12:19PM 53.0490 -53.8146 246° West  Level FlightAware Approximate
12:19PM 53.0000 -54.2167 227° Southwest 450 518 37,000  Level Gander Center
12:20PM 52.9333 -54.4000 239° Southwest 450 518 37,000  Level Gander Center
12:21PM 52.8667 -54.5667 237° Southwest 450 518 37,000  Level Gander Center
12:22PM 52.7833 -54.7500 233° Southwest 450 518 37,000  Level Gander Center
12:23PM 52.7000 -54.9000 228° Southwest 450 518 37,000  Level Gander Center
12:24PM 52.6333 -55.0833 239° Southwest 450 518 37,000  Level Gander Center
12:25PM 52.5667 -55.2500 237° Southwest 450 518 37,000  Level Gander Center
12:26PM 52.4833 -55.4000 228° Southwest 450 518 37,000  Level Gander Center
12:27PM 52.4000 -55.5833 233° Southwest 450 518 37,000  Level Gander Center
12:28PM 52.3333 -55.7500 237° Southwest 450 518 37,000  Level Gander Center
12:29PM 52.2500 -55.9167 231° Southwest 450 518 37,000 360 Level Gander Center
12:30PM 52.1833 -56.0667 234° Southwest 450 518 37,800 480 Climbing Gander Center
12:31PM 52.1000 -56.2500 234° Southwest 450 518 38,000 60 Climbing Gander Center
12:32PM 52.0333 -56.3833 231° Southwest 440 506 38,000  Level Gander Center
12:33PM 51.9667 -56.5500 237° Southwest 440 506 38,000  Level Gander Center
12:34PM 51.8833 -56.7000 228° Southwest 440 506 38,000  Level Gander Center
12:35PM 51.8167 -56.8667 237° Southwest 440 506 38,000  Level Gander Center
12:36PM 51.7333 -57.0333 231° Southwest 450 518 38,000  Level Gander Center
12:37PM 51.6500 -57.1833 228° Southwest 440 506 38,000  Level Gander Center
12:38PM 51.5667 -57.3333 228° Southwest 440 506 38,000  Level Gander Center
12:39PM 51.5167 -57.4667 239° Southwest 440 506 38,000  Level Gander Center
12:39PM 51.5000 -57.5167 242° Southwest 440 506 38,000  Level Moncton Center
12:40PM 51.4333 -57.6333 228° Southwest 440 506 38,000  Level Gander Center
12:41PM 51.3500 -57.8000 231° Southwest 440 506 38,000  Level Gander Center
12:42PM 51.2833 -57.9667 237° Southwest 450 518 38,000  Level Gander Center
12:43PM 51.2000 -58.1000 225° Southwest 460 529 38,000  Level Gander Center
12:44PM 51.1167 -58.2667 232° Southwest 460 529 38,000  Level Gander Center
12:45PM 51.0333 -58.4333 232° Southwest 450 518 38,000  Level Gander Center
12:46PM 50.9500 -58.5667 225° Southwest 450 518 38,000  Level Gander Center
12:47PM 50.8833 -58.7333 238° Southwest 450 518 38,000  Level Gander Center
12:48PM 50.8000 -58.9000 232° Southwest 450 518 38,000 -120 Level Gander Center
12:49PM 50.7167 -59.0333 225° Southwest 450 518 37,800 -600 Descending Gander Center
12:50PM 50.6333 -59.2000 232° Southwest 440 506 36,800 -1,020 Descending Gander Center
12:51PM 50.5500 -59.3333 225° Southwest 440 506 35,800 -900 Descending Gander Center
12:52PM 50.4667 -59.5000 232° Southwest 450 518 35,000 -420 Descending Gander Center
12:53PM 50.4000 -59.6333 232° Southwest 440 506 35,000  Level Gander Center
12:54PM 50.3167 -59.7667 226° Southwest 440 506 35,000  Level Gander Center
12:55PM 50.2333 -59.9167 229° Southwest 440 506 35,000  Level Gander Center
12:56PM 50.1500 -60.0500 226° Southwest 440 506 35,000  Level Gander Center
12:57PM 50.0667 -60.1833 226° Southwest 440 506 35,000  Level Gander Center
12:58PM 49.9667 -60.3500 227° Southwest 440 506 35,000  Level Gander Center
12:59PM 49.9000 -60.4833 232° Southwest 440 506 35,000  Level Gander Center
01:00PM 49.8167 -60.6167 226° Southwest 440 506 35,000  Level Gander Center
01:01PM 49.7167 -60.7667 224° Southwest 440 506 35,000  Level Gander Center
01:02PM 49.6500 -60.9000 232° Southwest 440 506 35,000  Level Gander Center
01:03PM 49.5500 -61.0500 224° Southwest 440 506 35,000  Level Gander Center
01:04PM 49.4833 -61.1833 232° Southwest 440 506 35,000  Level Gander Center
01:05PM 49.3833 -61.3000 217° Southwest 440 506 35,000  Level Gander Center
01:06PM 49.3000 -61.4667 233° Southwest 440 506 35,000  Level Gander Center
01:07PM 49.2167 -61.5833 222° Southwest 440 506 35,000  Level Gander Center
01:08PM 49.1333 -61.7333 230° Southwest 430 495 35,000  Level Moncton Center
01:09PM 49.0500 -61.8667 226° Southwest 440 506 35,000  Level Moncton Center
01:10PM 48.9667 -62.0000 226° Southwest 440 506 35,000  Level Gander Center
01:11PM 48.8833 -62.1167 223° Southwest 450 518 35,000  Level Gander Center
01:12PM 48.8000 -62.2667 230° Southwest 450 518 35,000  Level Gander Center
01:13PM 48.7167 -62.4000 227° Southwest 440 506 35,000  Level Gander Center
01:14PM 48.6333 -62.5167 223° Southwest 440 506 35,000  Level Gander Center
01:15PM 48.5333 -62.6667 225° Southwest 440 506 35,000  Level Gander Center
01:16PM 48.4500 -62.8000 227° Southwest 430 495 35,000  Level Gander Center
01:17PM 48.3667 -62.9167 223° Southwest 440 506 35,000  Level Gander Center
01:18PM 48.2833 -63.0667 230° Southwest 450 518 35,000  Level Gander Center
01:19PM 48.2000 -63.1833 223° Southwest 450 518 35,000  Level Gander Center
01:20PM 48.1167 -63.3333 230° Southwest 450 518 35,000  Level Gander Center
01:21PM 48.0333 -63.4500 223° Southwest 450 518 35,000  Level Gander Center
01:22PM 47.9167 -63.6000 221° Southwest 440 506 35,000  Level Gander Center
01:23PM 47.8333 -63.7167 223° Southwest 450 518 35,000  Level Gander Center
01:24PM 47.7500 -63.8333 223° Southwest 440 506 35,000  Level Gander Center
01:25PM 47.6667 -63.9833 231° Southwest 440 506 35,000  Level Gander Center
01:26PM 47.5833 -64.1000 223° Southwest 440 506 35,000  Level Gander Center
01:27PM 47.4833 -64.2167 218° Southwest 440 506 35,000  Level Gander Center
01:28PM 47.4000 -64.3667 231° Southwest 440 506 35,000  Level Gander Center
01:29PM 47.3167 -64.4833 224° Southwest 440 506 35,000  Level Gander Center
01:30PM 47.2333 -64.6000 224° Southwest 440 506 35,000  Level Gander Center
01:31PM 47.1333 -64.7500 226° Southwest 450 518 35,000  Level Gander Center
01:32PM 47.0500 -64.8667 224° Southwest 450 518 35,000  Level Gander Center
01:33PM 46.9667 -65.0000 228° Southwest 440 506 35,000  Level Gander Center
01:34PM 46.8833 -65.1000 219° Southwest 450 518 35,000  Level Moncton Center
01:35PM 46.7833 -65.2500 226° Southwest 450 518 35,000  Level Moncton Center
01:36PM 46.6833 -65.3667 219° Southwest 450 518 35,000  Level Moncton Center
01:42PM 46.1850 -66.0940 219° Southwest 455 524 35,000  Level FlightAware
01:43PM 46.0810 -66.2330 223° Southwest 456 525 35,000  Level FlightAware
01:44PM 46.0010 -66.3400 223° Southwest 449 517 35,000  Level FlightAware
01:45PM 45.8930 -66.4840 223° Southwest 449 517 35,000  Level FlightAware
01:46PM 45.8380 -66.5570 223° Southwest 448 516 35,000  Level FlightAware
01:46PM 45.7630 -66.6570 223° Southwest 447 514 35,000  Level FlightAware
01:47PM 45.6770 -66.7710 223° Southwest 455 524 35,000  Level FlightAware
01:48PM 45.6140 -66.8530 222° Southwest 456 525 35,000  Level FlightAware
01:49PM 45.5450 -66.9440 223° Southwest 455 524 35,000  Level FlightAware
01:50PM 45.4360 -67.0860 222° Southwest 447 514 35,000  Level FlightAware
01:51PM 45.3290 -67.2250 222° Southwest 453 521 35,000  Level FlightAware
01:52PM 45.2200 -67.3660 222° Southwest 454 522 35,000  Level FlightAware
01:53PM 45.1640 -67.4370 222° Southwest 456 525 35,000 -480 Level FlightAware
01:54PM 45.0870 -67.5360 222° Southwest 458 527 34,400 -900 Descending FlightAware
01:55PM 45.0000 -67.6460 222° Southwest 458 527 33,500 -1,020 Descending FlightAware
01:55PM 44.9360 -67.7280 222° Southwest 459 528 32,800 -1,020 Descending FlightAware
01:56PM 44.8640 -67.8190 222° Southwest 457 526 32,100 -600 Descending FlightAware
01:57PM 44.8020 -67.8980 222° Southwest 458 527 32,000 -120 Descending FlightAware
01:57PM 44.7370 -67.9800 222° Southwest 458 527 32,000  Level FlightAware
01:58PM 44.6680 -68.0660 222° Southwest 455 524 32,000  Level FlightAware
01:59PM 44.6010 -68.1500 222° Southwest 459 528 32,000  Level FlightAware
01:59PM 44.5290 -68.2390 221° Southwest 460 529 32,000  Level FlightAware
02:00PM 44.4650 -68.3180 221° Southwest 459 528 32,000  Level FlightAware
02:01PM 44.4000 -68.3990 222° Southwest 460 529 32,000  Level FlightAware
02:02PM 44.3240 -68.4920 221° Southwest 466 536 32,000  Level FlightAware
02:02PM 44.2570 -68.5750 222° Southwest 467 537 32,000  Level FlightAware
02:03PM 44.1980 -68.6470 221° Southwest 467 537 32,000  Level FlightAware
02:04PM 44.0830 -68.7890 222° Southwest 470 541 32,000  Level FlightAware
02:05PM 43.9730 -68.9210 221° Southwest 471 542 32,000  Level FlightAware
02:06PM 43.8990 -69.0120 222° Southwest 471 542 32,000  Level FlightAware
02:07PM 43.8390 -69.0830 220° Southwest 470 541 32,000  Level FlightAware
02:07PM 43.7490 -69.1920 221° Southwest 473 544 32,000  Level FlightAware
02:08PM 43.6740 -69.2810 221° Southwest 472 543 32,000  Level FlightAware
02:09PM 43.6010 -69.3680 221° Southwest 471 542 32,000  Level FlightAware
02:11PM 43.4350 -69.5650 221° Southwest 468 539 32,000  Level FlightAware
02:12PM 43.3260 -69.6940 221° Southwest 469 540 32,000  Level FlightAware
02:13PM 43.2400 -69.7950 221° Southwest 467 537 32,000  Level FlightAware
02:13PM 43.1740 -69.8720 220° Southwest 465 535 32,000  Level FlightAware
02:14PM 43.1020 -69.9560 220° Southwest 468 539 32,000  Level FlightAware
02:15PM 43.0340 -70.0350 220° Southwest 467 537 32,000  Level FlightAware
02:15PM 42.9680 -70.1120 220° Southwest 464 534 32,000  Level FlightAware
02:16PM 42.8940 -70.1970 220° Southwest 465 535 32,000  Level FlightAware
02:17PM 42.8340 -70.2660 220° Southwest 462 532 32,000  Level FlightAware
02:17PM 42.7680 -70.3430 221° Southwest 464 534 32,000  Level FlightAware
02:18PM 42.6900 -70.4320 220° Southwest 464 534 32,000  Level FlightAware
02:19PM 42.6240 -70.5060 220° Southwest 465 535 32,000  Level FlightAware
02:20PM 42.5520 -70.5890 220° Southwest 464 534 32,000  Level FlightAware
02:20PM 42.4860 -70.6640 220° Southwest 464 534 32,000  Level FlightAware
02:21PM 42.4130 -70.7470 220° Southwest 462 532 32,000  Level FlightAware
02:22PM 42.3490 -70.8190 220° Southwest 465 535 32,000  Level FlightAware
02:22PM 42.2610 -70.9190 220° Southwest 472 543 32,000  Level FlightAware
02:23PM 42.1860 -71.0060 221° Southwest 477 549 32,000  Level FlightAware
02:24PM 42.1210 -71.0820 221° Southwest 462 532 32,000  Level FlightAware
02:25PM 42.0540 -71.1600 221° Southwest 462 532 32,000  Level FlightAware
02:25PM 41.9800 -71.2450 221° Southwest 464 534 32,000  Level FlightAware
02:26PM 41.9180 -71.3170 221° Southwest 465 535 32,000  Level FlightAware
02:27PM 41.8460 -71.3990 220° Southwest 468 539 32,000  Level FlightAware
02:27PM 41.7750 -71.4810 221° Southwest 465 535 32,000  Level FlightAware
02:28PM 41.7120 -71.5520 220° Southwest 466 536 32,000  Level FlightAware
02:29PM 41.6380 -71.6370 221° Southwest 466 536 32,000  Level FlightAware
02:30PM 41.5720 -71.7110 220° Southwest 466 536 32,000  Level FlightAware
02:30PM 41.5030 -71.7900 221° Southwest 466 536 32,000 -360 Level FlightAware
02:31PM 41.4470 -71.8530 220° Southwest 464 534 31,600 -900 Descending FlightAware
02:32PM 41.3690 -71.9400 220° Southwest 452 520 30,800 -1,020 Descending FlightAware
02:32PM 41.2990 -72.0190 220° Southwest 420 483 30,000 -1,020 Descending FlightAware
02:33PM 41.2520 -72.0730 221° Southwest 403 464 29,500 -1,020 Descending FlightAware
02:34PM 41.1880 -72.1440 220° Southwest 391 450 28,700 -720 Descending FlightAware
02:34PM 41.1320 -72.2060 220° Southwest 391 450 28,500 -1,080 Descending FlightAware
02:35PM 41.0650 -72.2800 220° Southwest 378 435 27,200 -1,440 Descending FlightAware
02:36PM 41.0007 -72.3520 220° Southwest 376 433 26,400 -1,080 Descending FlightAware ADS-B
02:36PM 40.9595 -72.3975 220° Southwest 377 434 25,900 -1,020 Descending FlightAware ADS-B
02:37PM 40.9159 -72.4456 220° Southwest 392 451 25,400 -960 Descending FlightAware ADS-B
02:37PM 40.8696 -72.4968 220° Southwest 398 458 24,900 -960 Descending FlightAware ADS-B
02:38PM 40.8258 -72.5449 220° Southwest 398 458 24,400 -1,080 Descending FlightAware ADS-B
02:39PM 40.7714 -72.6047 220° Southwest 396 456 23,700 -1,080 Descending FlightAware ADS-B
02:39PM 40.7279 -72.6523 220° Southwest 393 452 23,200 -960 Descending FlightAware ADS-B
02:40PM 40.6837 -72.7007 220° Southwest 392 451 22,700 -1,020 Descending FlightAware ADS-B
02:41PM 40.6030 -72.7889 220° Southwest 386 444 21,700 -840 Descending FlightAware ADS-B
02:41PM 40.5455 -72.8515 220° Southwest 383 441 21,300 -540 Descending FlightAware ADS-B
02:42PM 40.4930 -72.9085 220° Southwest 376 433 21,000 -540 Descending FlightAware ADS-B
02:43PM 40.4468 -72.9585 219° Southwest 371 427 20,700 -540 Descending FlightAware ADS-B
02:43PM 40.3930 -73.0170 220° Southwest 368 423 20,300 -600 Descending FlightAware
02:44PM 40.3598 -73.0526 219° Southwest 370 426 20,100 -300 Descending FlightAware ADS-B
02:44PM 40.3053 -73.1113 219° Southwest 367 422 20,000 -120 Descending FlightAware ADS-B
02:45PM 40.2572 -73.1631 219° Southwest 369 425 20,000  Level FlightAware ADS-B
02:46PM 40.2140 -73.2095 219° Southwest 370 426 20,000 -360 Level FlightAware ADS-B
02:46PM 40.1710 -73.2560 220° Southwest 372 428 19,600 -840 Descending FlightAware
02:46PM 40.1553 -73.2723 218° Southwest 370 426 19,400 -1,080 Descending FlightAware ADS-B
02:47PM 40.1170 -73.3130 219° Southwest 359 413 18,900 -1,020 Descending FlightAware
02:47PM 40.0840 -73.3484 219° Southwest 361 415 18,500 -1,080 Descending FlightAware ADS-B
02:48PM 40.0535 -73.3901 226° Southwest 354 407 18,000 -1,020 Descending FlightAware ADS-B
02:48PM 40.0185 -73.4404 228° Southwest 346 398 17,500 -960 Descending FlightAware ADS-B
02:49PM 39.9842 -73.4893 228° Southwest 347 399 17,000 -1,080 Descending FlightAware ADS-B
02:49PM 39.9515 -73.5358 227° Southwest 345 397 16,400 -1,140 Descending FlightAware ADS-B
02:50PM 39.9187 -73.5825 228° Southwest 344 396 15,900 -960 Descending FlightAware ADS-B
02:50PM 39.8824 -73.6340 227° Southwest 345 397 15,400 -960 Descending FlightAware ADS-B
02:51PM 39.8501 -73.6797 227° Southwest 343 395 14,900 -1,020 Descending FlightAware ADS-B
02:52PM 39.7969 -73.7550 227° Southwest 338 389 14,100 -840 Descending FlightAware ADS-B
02:52PM 39.7536 -73.8162 227° Southwest 336 387 13,700 -360 Descending FlightAware ADS-B
02:53PM 39.7142 -73.8716 227° Southwest 336 387 13,700  Level FlightAware ADS-B
02:53PM 39.6826 -73.9160 227° Southwest 336 387 13,700  Level FlightAware ADS-B
02:54PM 39.6504 -73.9613 227° Southwest 336 387 13,700  Level FlightAware ADS-B
02:55PM 39.6116 -74.0157 227° Southwest 335 386 13,700  Level FlightAware ADS-B
02:55PM 39.5800 -74.0598 227° Southwest 333 383 13,700  Level FlightAware ADS-B
02:56PM 39.5472 -74.1058 227° Southwest 333 383 13,700  Level FlightAware ADS-B
02:56PM 39.5324 -74.1306 232° Southwest 335 386 13,700  Level FlightAware ADS-B
02:56PM 39.5276 -74.1457 248° West 335 386 13,700  Level FlightAware ADS-B
02:56PM 39.5251 -74.1631 259° West 338 389 13,700 -660 Level FlightAware ADS-B
02:56PM 39.5252 -74.2047 270° West 337 388 13,400 -1,200 Descending FlightAware ADS-B
02:57PM 39.5269 -74.2946 271° West 335 386 12,400 -1,200 Descending FlightAware ADS-B
02:58PM 39.5284 -74.3799 271° West 332 382 11,700 -900 Descending FlightAware ADS-B
02:59PM 39.5310 -74.5280 271° West 302 348 10,700 -780 Descending FlightAware
02:59PM 39.5313 -74.5472 271° West 303 349 10,600 -600 Descending FlightAware ADS-B
03:00PM 39.5320 -74.5970 271° West 280 322 10,300 -840 Descending FlightAware
03:00PM 39.5325 -74.6211 272° West 278 320 10,000 -1,440 Descending FlightAware ADS-B
03:00PM 39.5331 -74.6559 271° West 277 319 9,500 -1,200 Descending FlightAware ADS-B
03:01PM 39.5335 -74.6808 271° West 275 316 9,300 -840 Descending FlightAware ADS-B
03:01PM 39.5339 -74.7057 271° West 274 315 9,100 -840 Descending FlightAware ADS-B
03:01PM 39.5343 -74.7302 271° West 274 315 8,900 -600 Descending FlightAware ADS-B
03:02PM 39.5347 -74.7587 271° West 271 312 8,800 -420 Descending FlightAware ADS-B
03:02PM 39.5350 -74.7830 271° West 272 313 8,700 -600 Descending FlightAware ADS-B
03:02PM 39.5355 -74.8088 271° West 271 312 8,500 -600 Descending FlightAware ADS-B
03:02PM 39.5358 -74.8335 271° West 272 313 8,400 -600 Descending FlightAware ADS-B
03:03PM 39.5362 -74.8582 271° West 274 315 8,200 -600 Descending FlightAware ADS-B
03:03PM 39.5366 -74.8829 271° West 271 312 8,100 -420 Descending FlightAware ADS-B
03:03PM 39.5370 -74.9076 271° West 273 314 8,000 -780 Descending FlightAware ADS-B
03:03PM 39.5373 -74.9336 271° West 274 315 7,700 -1,080 Descending FlightAware ADS-B
03:03PM 39.5376 -74.9525 271° West 272 313 7,500 -960 Descending FlightAware ADS-B
03:04PM 39.5386 -74.9758 273° West 272 313 7,300 -1,020 Descending FlightAware ADS-B
03:04PM 39.5407 -75.0024 276° West 273 314 7,000 -960 Descending FlightAware ADS-B
03:04PM 39.5426 -75.0274 276° West 273 314 6,800 -960 Descending FlightAware ADS-B
03:05PM 39.5446 -75.0535 276° West 272 313 6,500 -1,020 Descending FlightAware ADS-B
03:05PM 39.5480 -75.0970 276° West 271 312 6,100 -1,020 Descending FlightAware ADS-B
03:05PM 39.5499 -75.1222 276° West 269 310 5,800 -780 Descending FlightAware ADS-B
03:05PM 39.5519 -75.1472 276° West 272 313 5,700 -240 Descending FlightAware ADS-B
03:06PM 39.5538 -75.1716 276° West 270 311 5,700  Level FlightAware ADS-B
03:06PM 39.5557 -75.1968 276° West 269 310 5,700 180 Level FlightAware ADS-B
03:06PM 39.5576 -75.2212 276° West 270 311 5,800  Climbing FlightAware ADS-B
03:07PM 39.5597 -75.2486 276° West 268 308 5,700  Descending FlightAware ADS-B
03:07PM 39.5614 -75.2709 276° West 268 308 5,800  Climbing FlightAware ADS-B
03:07PM 39.5620 -75.2768 278° West 270 311 5,700 -900 Descending FlightAware ADS-B
03:07PM 39.5631 -75.2824 284° West 272 313 5,700  Level FlightAware ADS-B
03:07PM 39.5645 -75.2879 288° West 275 316 5,700  Level FlightAware ADS-B
03:07PM 39.5662 -75.2927 295° West 277 319 5,700  Level FlightAware ADS-B
03:07PM 39.5684 -75.2974 301° West 280 322 5,700  Level FlightAware ADS-B
03:07PM 39.5750 -75.3068 312° West 288 331 5,700 420 Level FlightAware ADS-B
03:07PM 39.5826 -75.3132 327° Northwest 292 336 5,800 540 Climbing FlightAware ADS-B
03:07PM 39.5880 -75.3165 335° Northwest 295 339 5,800 -600 Level FlightAware ADS-B
03:07PM 39.5964 -75.3207 339° North 298 343 5,700 -300 Descending FlightAware ADS-B
03:08PM 39.6173 -75.3282 345° North 286 329 5,700  Level FlightAware ADS-B
03:08PM 39.6254 -75.3310 345° North 279 321 5,700  Level FlightAware ADS-B
03:08PM 39.6339 -75.3342 344° North 273 314 5,700  Level FlightAware ADS-B
03:08PM 39.6518 -75.3414 343° North 261 300 5,700  Level FlightAware ADS-B
03:08PM 39.6691 -75.3488 342° North 248 285 5,700  Level FlightAware ADS-B
03:09PM 39.6832 -75.3549 342° North 235 270 5,700 180 Level FlightAware ADS-B
03:09PM 39.6997 -75.3621 341° North 232 267 5,800  Climbing FlightAware ADS-B
03:09PM 39.7161 -75.3696 341° North 221 254 5,700 -300 Descending FlightAware ADS-B
03:09PM 39.7197 -75.3720 333° Northwest 214 246 5,700  Level FlightAware ADS-B
03:09PM 39.7237 -75.3756 325° Northwest 206 237 5,700 -780 Level FlightAware ADS-B
03:09PM 39.7261 -75.3785 317° Northwest 200 230 5,600 -1,380 Descending FlightAware ADS-B
03:10PM 39.7289 -75.3832 308° West 193 222 5,500 -600 Descending FlightAware ADS-B
03:10PM 39.7308 -75.3877 299° West 187 215 5,500 -780 Level FlightAware ADS-B
03:10PM 39.7318 -75.3913 290° West 182 209 5,400 -1,740 Descending FlightAware ADS-B
03:10PM 39.7324 -75.3949 282° West 178 205 5,300 -900 Descending FlightAware ADS-B
03:10PM 39.7326 -75.3991 274° West 174 200 5,300 -780 Level FlightAware ADS-B
03:10PM 39.7323 -75.4028 264° West 171 197 5,200 -1,500 Descending FlightAware ADS-B
03:10PM 39.7317 -75.4072 260° West 168 193 5,100 -1,200 Descending FlightAware ADS-B
03:10PM 39.7308 -75.4127 258° West 167 192 5,000 -1,320 Descending FlightAware ADS-B
03:10PM 39.7292 -75.4210 256° West 167 192 4,800 -600 Descending FlightAware ADS-B
03:10PM 39.7266 -75.4332 255° West 169 194 4,800 -240 Level FlightAware ADS-B
03:11PM 39.7234 -75.4483 255° West 167 192 4,700 -240 Descending FlightAware ADS-B
03:11PM 39.7208 -75.4598 254° West 169 194 4,700  Level FlightAware ADS-B
03:11PM 39.7186 -75.4696 254° West 169 194 4,700  Level FlightAware ADS-B
03:11PM 39.7153 -75.4849 254° West 167 192 4,700  Level FlightAware ADS-B
03:12PM 39.7119 -75.5004 254° West 169 194 4,700  Level FlightAware ADS-B
03:12PM 39.7084 -75.5165 254° West 168 193 4,700  Level FlightAware ADS-B
03:12PM 39.7050 -75.5320 254° West 168 193 4,700  Level FlightAware ADS-B
03:12PM 39.7017 -75.5468 254° West 168 193 4,700  Level FlightAware ADS-B
03:13PM 39.6986 -75.5610 254° West 169 194 4,700  Level FlightAware ADS-B
03:13PM 39.6977 -75.5662 257° West 172 198 4,700 -600 Level FlightAware ADS-B
03:13PM 39.6977 -75.5718 270° West 182 209 4,600 -1,380 Descending FlightAware ADS-B
03:13PM 39.6982 -75.5755 280° West 186 214 4,500 -1,200 Descending FlightAware ADS-B
03:13PM 39.7007 -75.5824 295° West 196 226 4,400 -600 Descending FlightAware ADS-B
03:13PM 39.7025 -75.5855 307° West 200 230 4,400 -780 Level FlightAware ADS-B
03:13PM 39.7058 -75.5894 318° Northwest 206 237 4,300 -1,380 Descending FlightAware ADS-B
03:13PM 39.7090 -75.5920 328° Northwest 209 241 4,200 -900 Descending FlightAware ADS-B
03:13PM 39.7119 -75.5937 336° Northwest 211 243 4,200 -1,020 Level FlightAware ADS-B
03:13PM 39.7149 -75.5949 343° North 213 245 4,100 -720 Descending FlightAware ADS-B
03:13PM 39.7208 -75.5966 348° North 213 245 4,100 -540 Level FlightAware ADS-B
03:13PM 39.7263 -75.5978 350° North 212 244 4,000 -900 Descending FlightAware ADS-B
03:14PM 39.7408 -75.6002 353° North 209 241 3,800 -600 Descending FlightAware ADS-B
03:14PM 39.7464 -75.6009 355° North 210 242 3,800  Level FlightAware ADS-B
03:14PM 39.7500 -75.6009 360° North 212 244 3,800 -780 Level FlightAware ADS-B
03:14PM 39.7541 -75.6002 North 214 246 3,700 -720 Descending FlightAware ADS-B
03:14PM 39.7582 -75.5983 20° North 215 247 3,700  Level FlightAware ADS-B
03:14PM 39.7624 -75.5952 30° Northeast 213 245 3,700 660 Level FlightAware ADS-B
03:14PM 39.7654 -75.5919 40° Northeast 212 244 3,800 840 Climbing FlightAware ADS-B
03:14PM 39.7676 -75.5892 43° Northeast 210 242 3,800 -780 Level FlightAware ADS-B
03:14PM 39.7710 -75.5840 50° Northeast 211 243 3,700 -600 Descending FlightAware ADS-B
03:14PM 39.7746 -75.5781 52° Northeast 210 242 3,700  Level FlightAware ADS-B
03:15PM 39.7841 -75.5618 53° Northeast 209 241 3,700 -420 Level FlightAware ADS-B
03:15PM 39.7929 -75.5464 53° Northeast 209 241 3,500 -780 Descending FlightAware ADS-B
03:15PM 39.8025 -75.5296 53° Northeast 207 238 3,300 -780 Descending FlightAware ADS-B
03:15PM 39.8107 -75.5149 54° Northeast 202 232 3,100 -840 Descending FlightAware ADS-B
03:16PM 39.8137 -75.5081 60° Northeast 197 227 3,000 -600 Descending FlightAware ADS-B
03:16PM 39.8152 -75.5031 69° East 194 223 3,000 -780 Level FlightAware ADS-B
03:16PM 39.8161 -75.4990 74° East 191 220 2,900 -1,020 Descending FlightAware ADS-B
03:16PM 39.8176 -75.4905 77° East 189 217 2,800 -780 Descending FlightAware ADS-B